Terminal Aerodrome Forecast
Issued by NWS Sterling, VA

Current Version | Previous Version | Graphics & Text | Print | Product List | Glossary On
Versions: 1 2 3 4 5 6 7 8 9 10 11 12 13 14 15 16 17 18 19 20
056
FTUS41 KLWX 241720
TAFDCA
TAF
KDCA 241720Z 2418/2518 18006KT P6SM SCT060
     FM251400 20008KT P6SM BKN050
     FM251700 19008KT P6SM SCT050=

USA.gov is the U.S. government's official web portal to all federal, state and local government web resources and services.